createdAt,value
2019-03-28T19:11:26.446Z,24.35
2019-03-28T19:13:53.864Z,24.30
2019-03-28T19:16:21.814Z,24.34
2019-03-28T19:18:49.156Z,24.42
2019-03-28T19:21:16.456Z,24.39
2019-03-28T19:23:43.597Z,24.34
2019-03-28T19:26:11.245Z,24.34
2019-03-28T19:36:03.655Z,19.59
2019-03-28T19:38:31.133Z,20.53
2019-03-28T19:40:58.706Z,21.06
2019-03-28T19:43:42.091Z,21.55
2019-03-28T19:44:46.170Z,21.89
2019-03-28T19:46:52.017Z,22.12
2019-03-28T19:47:56.226Z,22.20
2019-03-28T19:51:09.114Z,16.32
2019-03-28T19:52:13.339Z,15.47
2019-03-28T19:53:17.942Z,14.14
2019-03-28T19:54:23.788Z,13.33
2019-03-28T19:55:28.740Z,12.80
2019-03-28T19:56:32.870Z,12.52
2019-03-28T19:57:36.516Z,12.00
2019-03-28T19:58:40.202Z,11.96
2019-03-28T19:59:43.841Z,11.90
2019-03-28T20:00:47.436Z,11.92
2019-03-28T20:01:51.248Z,11.82
2019-03-28T20:03:00.358Z,11.84
2019-03-28T20:04:03.195Z,11.85
2019-03-28T20:05:07.559Z,11.66
2019-03-28T20:06:21.499Z,11.67
2019-03-28T20:07:21.976Z,11.54
2019-03-28T20:08:25.986Z,11.42
2019-03-28T20:09:28.640Z,11.27
2019-03-28T20:10:32.329Z,11.15
2019-03-28T20:14:13.260Z,11.12
2019-03-28T20:15:18.030Z,11.84
2019-03-28T20:16:22.957Z,12.91
2019-03-28T20:17:27.045Z,13.92
2019-03-28T20:18:31.223Z,14.87
2019-03-28T20:19:34.918Z,15.74
2019-03-28T20:20:39.043Z,16.50
2019-03-28T20:21:43.133Z,17.20
2019-03-28T20:22:46.892Z,17.77
2019-03-28T20:23:51.120Z,18.33
2019-03-28T20:24:58.064Z,18.78
2019-03-28T20:28:51.339Z,15.48
2019-03-28T20:29:55.098Z,14.55
2019-03-28T20:31:01.534Z,13.71
2019-03-28T20:32:08.096Z,13.32
2019-03-28T20:33:11.181Z,13.08
2019-03-28T20:34:15.657Z,12.73
2019-03-28T20:35:19.532Z,12.45
2019-03-28T20:36:36.850Z,12.65
2019-03-28T20:37:29.608Z,12.47
2019-03-28T20:38:33.640Z,12.56
2019-03-28T20:39:37.655Z,12.54
2019-03-28T20:40:43.398Z,12.53
2019-03-28T20:41:46.735Z,12.40
2019-03-28T20:42:50.726Z,12.51
2019-03-28T20:43:54.455Z,12.63
2019-03-28T20:44:58.072Z,12.60
2019-03-28T20:46:02.917Z,12.62
2019-03-28T20:47:07.916Z,12.58
2019-03-28T20:48:11.643Z,12.46
2019-03-28T20:49:15.271Z,12.28
2019-03-28T20:50:19.049Z,12.01
2019-03-28T20:51:24.556Z,11.95
2019-03-28T20:52:28.118Z,12.04
2019-03-28T20:53:31.783Z,11.71
2019-03-28T20:54:35.376Z,11.66
2019-03-28T20:55:38.987Z,11.61
2019-03-28T20:56:43.231Z,11.56
2019-03-28T20:57:47.700Z,11.44
2019-03-28T20:58:51.338Z,11.45
2019-03-28T20:59:55.184Z,11.59
